Miami, Florida
Traffic Map
Current Weather Conditions
Miami, Florida
Overcast
Overcast
27°
Feels Like: 30°
Wind Chill: 27° Ceiling: 25000
Heat Index: 30° Visibility: 10mi
Dew Point: 24° Wind: 6mph
Humidity: 82% Direction: ° ()
Pressure: 29.99in Gusts: 0mph
Raw Report DataKMIA 302353Z VRB05KT 10SM FEW020 SCT140 OVC250 27/24 A2999 RMK AO2 SLP156 60007 T02720239 10278 20256 55005 $
Traffic Incident Summary
Active as of:
Severity:
Category:
InformationThere was an issue retrieving the traffic information for this location. Please try a different location or try again shortly.
Advertisements
Track Severe Weather on mobile